sensor_id;sensor_type;location;lat;lon;timestamp;temperature;humidity
71879;DHT22;59755;43.834;4.364;2022-08-21T11:55:43;39.70;20.40
71879;DHT22;59755;43.834;4.364;2022-08-21T11:58:25;39.80;20.40
71879;DHT22;59755;43.834;4.364;2022-08-21T12:01:01;39.50;20.80
71879;DHT22;59755;43.834;4.364;2022-08-21T12:03:51;39.70;20.60
71879;DHT22;59755;43.834;4.364;2022-08-21T12:06:31;39.80;20.80
71879;DHT22;59755;43.834;4.364;2022-08-21T12:09:02;40.50;20.40
71879;DHT22;59755;43.834;4.364;2022-08-21T12:11:29;40.50;19.90
71879;DHT22;59755;43.834;4.364;2022-08-21T12:14:17;40.90;19.60
71879;DHT22;59755;43.834;4.364;2022-08-21T14:06:48;43.50;18.20
71879;DHT22;59755;43.834;4.364;2022-08-21T14:11:53;43.20;18.20
71879;DHT22;59755;43.834;4.364;2022-08-21T14:14:27;43.70;17.90
71879;DHT22;59755;43.834;4.364;2022-08-21T14:16:55;43.70;18.10
71879;DHT22;59755;43.834;4.364;2022-08-21T14:19:38;44.20;18.10
71879;DHT22;59755;43.834;4.364;2022-08-21T14:25:00;44.00;17.90
71879;DHT22;59755;43.834;4.364;2022-08-21T14:27:28;43.60;18.30
71879;DHT22;59755;43.834;4.364;2022-08-21T14:30:08;43.00;18.50
71879;DHT22;59755;43.834;4.364;2022-08-21T14:32:40;39.60;20.60
71879;DHT22;59755;43.834;4.364;2022-08-21T14:35:07;37.80;21.90
71879;DHT22;59755;43.834;4.364;2022-08-21T14:37:33;37.30;22.50
71879;DHT22;59755;43.834;4.364;2022-08-21T14:39:59;36.30;22.90
71879;DHT22;59755;43.834;4.364;2022-08-21T14:42:25;36.70;22.60
71879;DHT22;59755;43.834;4.364;2022-08-21T14:44:52;37.10;22.30
71879;DHT22;59755;43.834;4.364;2022-08-21T14:47:19;38.50;21.50
71879;DHT22;59755;43.834;4.364;2022-08-21T14:49:45;39.40;20.80
71879;DHT22;59755;43.834;4.364;2022-08-21T14:52:10;39.80;20.50
71879;DHT22;59755;43.834;4.364;2022-08-21T14:54:36;40.30;20.10
71879;DHT22;59755;43.834;4.364;2022-08-21T14:57:06;39.00;20.80
71879;DHT22;59755;43.834;4.364;2022-08-21T14:59:34;38.30;21.40
71879;DHT22;59755;43.834;4.364;2022-08-21T15:02:01;36.90;22.30
71879;DHT22;59755;43.834;4.364;2022-08-21T15:04:29;36.10;22.70
71879;DHT22;59755;43.834;4.364;2022-08-21T15:06:55;35.30;23.10
71879;DHT22;59755;43.834;4.364;2022-08-21T15:09:21;34.80;23.40
71879;DHT22;59755;43.834;4.364;2022-08-21T15:11:47;34.70;23.50
71879;DHT22;59755;43.834;4.364;2022-08-21T15:14:34;34.40;23.70
71879;DHT22;59755;43.834;4.364;2022-08-21T15:17:01;34.40;23.70
71879;DHT22;59755;43.834;4.364;2022-08-21T15:19:29;34.40;23.80
71879;DHT22;59755;43.834;4.364;2022-08-21T15:21:55;34.50;23.90
71879;DHT22;59755;43.834;4.364;2022-08-21T15:24:21;34.60;24.00
71879;DHT22;59755;43.834;4.364;2022-08-21T15:26:48;34.70;24.10
71879;DHT22;59755;43.834;4.364;2022-08-21T15:29:14;34.50;23.70
71879;DHT22;59755;43.834;4.364;2022-08-21T15:32:14;34.00;26.30
71879;DHT22;59755;43.834;4.364;2022-08-21T15:34:41;33.50;27.80
71879;DHT22;59755;43.834;4.364;2022-08-21T15:37:07;33.10;28.20
71879;DHT22;59755;43.834;4.364;2022-08-21T15:39:34;32.90;27.90
71879;DHT22;59755;43.834;4.364;2022-08-21T15:42:00;32.90;27.80
71879;DHT22;59755;43.834;4.364;2022-08-21T15:44:28;32.90;27.50
71879;DHT22;59755;43.834;4.364;2022-08-21T15:46:54;32.90;26.80
71879;DHT22;59755;43.834;4.364;2022-08-21T15:49:20;33.00;27.00
71879;DHT22;59755;43.834;4.364;2022-08-21T15:51:46;33.00;27.20
71879;DHT22;59755;43.834;4.364;2022-08-21T15:54:11;32.80;27.40
71879;DHT22;59755;43.834;4.364;2022-08-21T15:56:39;32.80;27.30
71879;DHT22;59755;43.834;4.364;2022-08-21T15:59:19;32.80;27.80
71879;DHT22;59755;43.834;4.364;2022-08-21T16:01:50;32.60;28.10
71879;DHT22;59755;43.834;4.364;2022-08-21T16:04:26;32.50;28.60
71879;DHT22;59755;43.834;4.364;2022-08-21T16:06:53;32.30;28.90
71879;DHT22;59755;43.834;4.364;2022-08-21T16:09:19;32.00;29.40
71879;DHT22;59755;43.834;4.364;2022-08-21T16:11:45;31.90;29.40
71879;DHT22;59755;43.834;4.364;2022-08-21T16:14:14;31.90;29.60
71879;DHT22;59755;43.834;4.364;2022-08-21T16:16:40;31.80;30.00
71879;DHT22;59755;43.834;4.364;2022-08-21T16:19:07;31.80;29.90
71879;DHT22;59755;43.834;4.364;2022-08-21T16:21:34;31.80;29.80
71879;DHT22;59755;43.834;4.364;2022-08-21T16:24:00;31.70;29.90
71879;DHT22;59755;43.834;4.364;2022-08-21T16:26:44;31.60;30.10
71879;DHT22;59755;43.834;4.364;2022-08-21T16:29:10;31.50;30.40
71879;DHT22;59755;43.834;4.364;2022-08-21T16:31:36;31.60;30.30
71879;DHT22;59755;43.834;4.364;2022-08-21T16:34:02;31.70;30.20
71879;DHT22;59755;43.834;4.364;2022-08-21T16:36:28;31.80;30.20
71879;DHT22;59755;43.834;4.364;2022-08-21T16:38:55;31.60;30.30
71879;DHT22;59755;43.834;4.364;2022-08-21T16:41:23;31.50;30.50
71879;DHT22;59755;43.834;4.364;2022-08-21T16:43:51;31.40;30.60
71879;DHT22;59755;43.834;4.364;2022-08-21T16:46:18;31.40;30.50
71879;DHT22;59755;43.834;4.364;2022-08-21T16:48:45;31.30;30.40
71879;DHT22;59755;43.834;4.364;2022-08-21T16:51:13;31.20;30.50
71879;DHT22;59755;43.834;4.364;2022-08-21T16:53:39;31.20;30.30
71879;DHT22;59755;43.834;4.364;2022-08-21T16:56:06;31.00;30.40
71879;DHT22;59755;43.834;4.364;2022-08-21T16:58:35;31.00;30.40
71879;DHT22;59755;43.834;4.364;2022-08-21T17:01:04;31.00;30.50
71879;DHT22;59755;43.834;4.364;2022-08-21T17:03:33;30.80;30.90
71879;DHT22;59755;43.834;4.364;2022-08-21T17:06:01;30.70;30.70
71879;DHT22;59755;43.834;4.364;2022-08-21T17:08:27;30.60;30.90
71879;DHT22;59755;43.834;4.364;2022-08-21T17:10:54;30.50;31.30
71879;DHT22;59755;43.834;4.364;2022-08-21T17:13:20;30.30;30.90
71879;DHT22;59755;43.834;4.364;2022-08-21T17:15:46;30.20;30.50
71879;DHT22;59755;43.834;4.364;2022-08-21T17:18:17;30.20;30.50
71879;DHT22;59755;43.834;4.364;2022-08-21T17:20:44;30.20;30.60
71879;DHT22;59755;43.834;4.364;2022-08-21T17:23:12;30.10;30.10
71879;DHT22;59755;43.834;4.364;2022-08-21T17:25:39;30.00;30.10
71879;DHT22;59755;43.834;4.364;2022-08-21T17:28:06;30.10;29.80
71879;DHT22;59755;43.834;4.364;2022-08-21T17:30:32;30.00;29.80
71879;DHT22;59755;43.834;4.364;2022-08-21T17:32:59;30.00;29.70
71879;DHT22;59755;43.834;4.364;2022-08-21T17:35:25;30.10;29.60
71879;DHT22;59755;43.834;4.364;2022-08-21T17:37:51;30.10;29.60
71879;DHT22;59755;43.834;4.364;2022-08-21T17:40:18;30.10;29.30
71879;DHT22;59755;43.834;4.364;2022-08-21T17:42:46;30.00;29.20
71879;DHT22;59755;43.834;4.364;2022-08-21T17:45:15;30.00;29.30
71879;DHT22;59755;43.834;4.364;2022-08-21T17:47:42;30.00;29.20
71879;DHT22;59755;43.834;4.364;2022-08-21T17:50:10;29.90;29.20
71879;DHT22;59755;43.834;4.364;2022-08-21T17:52:36;29.80;29.00
71879;DHT22;59755;43.834;4.364;2022-08-21T17:55:03;29.80;29.10
71879;DHT22;59755;43.834;4.364;2022-08-21T17:57:31;29.80;29.00
71879;DHT22;59755;43.834;4.364;2022-08-21T17:59:59;29.70;29.10
71879;DHT22;59755;43.834;4.364;2022-08-21T18:02:25;29.70;29.00
71879;DHT22;59755;43.834;4.364;2022-08-21T18:04:51;29.60;28.80
71879;DHT22;59755;43.834;4.364;2022-08-21T18:07:19;29.60;28.90
71879;DHT22;59755;43.834;4.364;2022-08-21T18:09:45;29.60;29.30
71879;DHT22;59755;43.834;4.364;2022-08-21T18:12:12;29.50;29.60
71879;DHT22;59755;43.834;4.364;2022-08-21T18:14:39;29.40;30.10
71879;DHT22;59755;43.834;4.364;2022-08-21T18:17:11;29.30;30.40
71879;DHT22;59755;43.834;4.364;2022-08-21T18:19:39;29.20;30.60
71879;DHT22;59755;43.834;4.364;2022-08-21T18:22:05;29.20;30.50
71879;DHT22;59755;43.834;4.364;2022-08-21T18:24:34;29.10;30.40
71879;DHT22;59755;43.834;4.364;2022-08-21T18:27:02;29.10;30.50
71879;DHT22;59755;43.834;4.364;2022-08-21T18:29:29;29.00;30.60
71879;DHT22;59755;43.834;4.364;2022-08-21T18:31:55;28.90;30.70
71879;DHT22;59755;43.834;4.364;2022-08-21T18:34:25;28.80;30.70
71879;DHT22;59755;43.834;4.364;2022-08-21T18:36:53;28.80;30.80
71879;DHT22;59755;43.834;4.364;2022-08-21T18:39:20;28.60;31.00
71879;DHT22;59755;43.834;4.364;2022-08-21T18:41:46;28.60;31.10
71879;DHT22;59755;43.834;4.364;2022-08-21T18:44:14;28.60;31.10
71879;DHT22;59755;43.834;4.364;2022-08-21T18:46:42;28.50;31.10
71879;DHT22;59755;43.834;4.364;2022-08-21T18:49:10;28.50;31.10
71879;DHT22;59755;43.834;4.364;2022-08-21T18:51:36;28.40;31.40
71879;DHT22;59755;43.834;4.364;2022-08-21T18:54:02;28.30;31.30
71879;DHT22;59755;43.834;4.364;2022-08-21T18:56:28;28.30;31.40
71879;DHT22;59755;43.834;4.364;2022-08-21T18:58:53;28.20;31.40
71879;DHT22;59755;43.834;4.364;2022-08-21T19:01:23;28.10;31.50
71879;DHT22;59755;43.834;4.364;2022-08-21T19:03:49;28.10;31.50
71879;DHT22;59755;43.834;4.364;2022-08-21T19:06:15;28.10;31.50
71879;DHT22;59755;43.834;4.364;2022-08-21T19:08:41;28.10;31.60
71879;DHT22;59755;43.834;4.364;2022-08-21T19:11:07;28.10;31.50
71879;DHT22;59755;43.834;4.364;2022-08-21T19:13:33;28.10;31.50
71879;DHT22;59755;43.834;4.364;2022-08-21T19:16:00;28.00;31.40
71879;DHT22;59755;43.834;4.364;2022-08-21T19:18:29;28.00;31.40
71879;DHT22;59755;43.834;4.364;2022-08-21T19:20:56;28.00;31.40
71879;DHT22;59755;43.834;4.364;2022-08-21T19:23:22;27.90;31.50
71879;DHT22;59755;43.834;4.364;2022-08-21T19:25:51;27.90;31.50
71879;DHT22;59755;43.834;4.364;2022-08-21T19:28:30;27.80;31.60
71879;DHT22;59755;43.834;4.364;2022-08-21T19:31:12;27.80;31.70
71879;DHT22;59755;43.834;4.364;2022-08-21T19:33:40;27.80;31.70
71879;DHT22;59755;43.834;4.364;2022-08-21T19:36:08;27.70;31.80
71879;DHT22;59755;43.834;4.364;2022-08-21T19:38:35;27.60;32.10
71879;DHT22;59755;43.834;4.364;2022-08-21T19:41:01;27.60;32.10
71879;DHT22;59755;43.834;4.364;2022-08-21T19:43:30;27.60;32.20
71879;DHT22;59755;43.834;4.364;2022-08-21T19:45:57;27.50;32.50
71879;DHT22;59755;43.834;4.364;2022-08-21T19:48:24;27.50;32.70
71879;DHT22;59755;43.834;4.364;2022-08-21T19:50:50;27.40;32.90
71879;DHT22;59755;43.834;4.364;2022-08-21T19:53:17;27.50;33.00
71879;DHT22;59755;43.834;4.364;2022-08-21T19:55:44;27.50;33.10
71879;DHT22;59755;43.834;4.364;2022-08-21T19:58:24;27.40;33.40
71879;DHT22;59755;43.834;4.364;2022-08-21T20:00:51;27.30;33.90
71879;DHT22;59755;43.834;4.364;2022-08-21T20:03:16;27.30;34.20
71879;DHT22;59755;43.834;4.364;2022-08-21T20:05:42;27.20;34.40
71879;DHT22;59755;43.834;4.364;2022-08-21T20:08:09;27.20;34.70
71879;DHT22;59755;43.834;4.364;2022-08-21T20:10:34;27.30;35.00
71879;DHT22;59755;43.834;4.364;2022-08-21T20:13:00;27.20;35.20
71879;DHT22;59755;43.834;4.364;2022-08-21T20:15:26;27.20;35.50
71879;DHT22;59755;43.834;4.364;2022-08-21T20:17:52;27.20;35.60
71879;DHT22;59755;43.834;4.364;2022-08-21T20:20:18;27.20;35.80
71879;DHT22;59755;43.834;4.364;2022-08-21T20:22:43;27.20;35.90
71879;DHT22;59755;43.834;4.364;2022-08-21T20:25:09;27.10;36.10
71879;DHT22;59755;43.834;4.364;2022-08-21T20:27:35;27.20;36.10
71879;DHT22;59755;43.834;4.364;2022-08-21T20:30:04;27.10;36.30
71879;DHT22;59755;43.834;4.364;2022-08-21T20:32:30;27.10;36.40
71879;DHT22;59755;43.834;4.364;2022-08-21T20:34:55;27.10;36.50
71879;DHT22;59755;43.834;4.364;2022-08-21T20:37:21;27.10;36.70
71879;DHT22;59755;43.834;4.364;2022-08-21T20:39:47;27.00;36.90
71879;DHT22;59755;43.834;4.364;2022-08-21T20:42:13;27.00;37.00
71879;DHT22;59755;43.834;4.364;2022-08-21T20:44:39;27.00;37.10
71879;DHT22;59755;43.834;4.364;2022-08-21T20:47:06;26.90;37.40
71879;DHT22;59755;43.834;4.364;2022-08-21T20:49:45;26.80;37.60
71879;DHT22;59755;43.834;4.364;2022-08-21T20:52:14;26.70;37.80
71879;DHT22;59755;43.834;4.364;2022-08-21T20:54:54;26.70;37.80
71879;DHT22;59755;43.834;4.364;2022-08-21T20:57:30;26.60;38.00
71879;DHT22;59755;43.834;4.364;2022-08-21T21:00:10;26.70;38.00
71879;DHT22;59755;43.834;4.364;2022-08-21T21:05:46;26.60;38.10
71879;DHT22;59755;43.834;4.364;2022-08-21T21:08:29;26.60;38.10
71879;DHT22;59755;43.834;4.364;2022-08-21T21:11:04;26.60;38.20
71879;DHT22;59755;43.834;4.364;2022-08-21T21:13:48;26.60;38.30
71879;DHT22;59755;43.834;4.364;2022-08-21T21:16:40;26.60;38.30
71879;DHT22;59755;43.834;4.364;2022-08-21T21:19:08;26.40;38.60
71879;DHT22;59755;43.834;4.364;2022-08-21T21:21:40;26.40;38.60
71879;DHT22;59755;43.834;4.364;2022-08-21T21:24:10;26.40;38.80
71879;DHT22;59755;43.834;4.364;2022-08-21T21:26:47;26.30;38.90
71879;DHT22;59755;43.834;4.364;2022-08-21T21:29:23;26.30;38.90
71879;DHT22;59755;43.834;4.364;2022-08-21T21:31:53;26.40;38.90
71879;DHT22;59755;43.834;4.364;2022-08-21T21:34:20;26.30;39.00
71879;DHT22;59755;43.834;4.364;2022-08-21T21:37:03;26.20;39.20
71879;DHT22;59755;43.834;4.364;2022-08-21T21:45:06;26.20;39.50
71879;DHT22;59755;43.834;4.364;2022-08-21T21:51:08;26.00;39.70
71879;DHT22;59755;43.834;4.364;2022-08-21T21:54:02;26.00;39.80
71879;DHT22;59755;43.834;4.364;2022-08-21T22:02:25;25.90;40.00
71879;DHT22;59755;43.834;4.364;2022-08-21T22:08:07;25.80;40.10
71879;DHT22;59755;43.834;4.364;2022-08-21T22:11:12;25.70;40.20
71879;DHT22;59755;43.834;4.364;2022-08-21T22:16:32;25.70;40.20
71879;DHT22;59755;43.834;4.364;2022-08-21T22:19:11;25.70;40.20
71879;DHT22;59755;43.834;4.364;2022-08-21T22:21:40;25.70;40.20
71879;DHT22;59755;43.834;4.364;2022-08-21T22:24:24;25.60;40.20
71879;DHT22;59755;43.834;4.364;2022-08-21T22:26:59;25.60;40.20
71879;DHT22;59755;43.834;4.364;2022-08-21T22:29:43;25.50;40.40
71879;DHT22;59755;43.834;4.364;2022-08-21T22:32:11;25.50;40.50
71879;DHT22;59755;43.834;4.364;2022-08-21T22:34:37;25.50;40.30
71879;DHT22;59755;43.834;4.364;2022-08-21T22:37:09;25.50;40.30
71879;DHT22;59755;43.834;4.364;2022-08-21T22:39:38;25.50;40.30
71879;DHT22;59755;43.834;4.364;2022-08-21T22:42:10;25.50;40.30
71879;DHT22;59755;43.834;4.364;2022-08-21T22:44:55;25.50;40.40
71879;DHT22;59755;43.834;4.364;2022-08-21T22:47:39;25.40;40.60
71879;DHT22;59755;43.834;4.364;2022-08-21T22:52:54;25.30;40.60
71879;DHT22;59755;43.834;4.364;2022-08-21T22:58:19;25.20;40.90
71879;DHT22;59755;43.834;4.364;2022-08-21T23:03:43;25.20;41.10
71879;DHT22;59755;43.834;4.364;2022-08-21T23:08:56;25.10;41.20
71879;DHT22;59755;43.834;4.364;2022-08-21T23:11:36;25.10;41.30
71879;DHT22;59755;43.834;4.364;2022-08-21T23:14:02;25.00;41.50
71879;DHT22;59755;43.834;4.364;2022-08-21T23:16:50;25.10;41.50
71879;DHT22;59755;43.834;4.364;2022-08-21T23:19:31;24.90;41.80
71879;DHT22;59755;43.834;4.364;2022-08-21T23:30:19;24.70;42.40
71879;DHT22;59755;43.834;4.364;2022-08-21T23:33:23;24.60;42.50
71879;DHT22;59755;43.834;4.364;2022-08-21T23:41:58;24.50;42.80
71879;DHT22;59755;43.834;4.364;2022-08-21T23:50:12;24.30;43.30
71879;DHT22;59755;43.834;4.364;2022-08-21T23:55:32;24.30;43.20
